Time;durP1;ratioP1;P1;durP2;ratioP2;P2;SDS_P1;SDS_P2;PMS_P1;PMS_P2;Temp;Humidity;BMP_temperature;BMP_pressure;BME280_temperature;BME280_humidity;BME280_pressure;Samples;Min_cycle;Max_cycle;Signal;HPM_P1;HPM_P2
2023/06/04 00:00:36;;;;;;;;;;;20.70;51.60;;;;;;10127575;28;94538;-68
2023/06/04 00:05:38;;;;;;;;;;;20.60;51.50;;;;;;10125493;28;93677;-67
2023/06/04 00:10:40;;;;;;;;;;;20.60;51.50;;;;;;10125775;28;93616;-67
2023/06/04 00:15:42;;;;;;;;;;;20.60;51.60;;;;;;10127460;28;93928;-67
2023/06/04 00:20:44;;;;;;;;;;;20.60;51.60;;;;;;10110146;28;93538;-68
2023/06/04 00:25:46;;;;;;;;;;;20.60;51.70;;;;;;10127137;28;93558;-68
2023/06/04 00:30:47;;;;;;;;;;;20.60;51.70;;;;;;10125280;28;95788;-68
2023/06/04 00:35:49;;;;;;;;;;;20.60;51.70;;;;;;10125559;28;94909;-68
2023/06/04 00:40:51;;;;;;;;;;;20.60;51.70;;;;;;10122772;28;96945;-68
2023/06/04 00:45:53;;;;;;;;;;;20.60;51.70;;;;;;10125899;28;94599;-68
2023/06/04 00:50:54;;;;;;;;;;;20.60;51.70;;;;;;10125373;28;94487;-67
2023/06/04 00:55:56;;;;;;;;;;;20.60;51.70;;;;;;10125611;28;94464;-67
2023/06/04 01:00:59;;;;;;;;;;;20.60;51.70;;;;;;10125753;28;93769;-68
2023/06/04 01:06:10;;;;;;;;;;;20.60;51.70;;;;;;10107274;28;94433;-67
2023/06/04 01:11:12;;;;;;;;;;;20.60;51.70;;;;;;10108264;28;94217;-68
2023/06/04 01:16:15;;;;;;;;;;;20.60;51.70;;;;;;10093268;28;92794;-67
2023/06/04 01:21:18;;;;;;;;;;;20.60;51.70;;;;;;10130877;28;94552;-68
2023/06/04 01:26:20;;;;;;;;;;;20.60;51.70;;;;;;10131073;28;94609;-68
2023/06/04 01:31:22;;;;;;;;;;;20.60;51.80;;;;;;10129428;28;97086;-67
2023/06/04 01:36:24;;;;;;;;;;;20.60;51.80;;;;;;10131819;28;94615;-69
2023/06/04 01:41:26;;;;;;;;;;;20.60;51.80;;;;;;10130901;28;93683;-68
2023/06/04 01:46:28;;;;;;;;;;;20.50;51.80;;;;;;10131406;28;94445;-67
2023/06/04 01:51:30;;;;;;;;;;;20.50;51.80;;;;;;10129773;28;93473;-67
2023/06/04 01:56:32;;;;;;;;;;;20.50;51.90;;;;;;10130734;28;94474;-68
2023/06/04 02:01:34;;;;;;;;;;;20.60;51.90;;;;;;10112229;28;93740;-68
2023/06/04 02:06:37;;;;;;;;;;;20.60;51.90;;;;;;10113486;28;92732;-67
2023/06/04 02:11:38;;;;;;;;;;;20.60;52.00;;;;;;10129283;28;93488;-68
2023/06/04 02:16:40;;;;;;;;;;;20.50;51.90;;;;;;10129821;28;93595;-67
2023/06/04 02:21:42;;;;;;;;;;;20.50;51.90;;;;;;10126478;28;95798;-68
2023/06/04 02:26:44;;;;;;;;;;;20.50;51.90;;;;;;10111863;28;93678;-67
2023/06/04 02:31:46;;;;;;;;;;;20.50;51.90;;;;;;10128214;28;94203;-67
2023/06/04 02:36:48;;;;;;;;;;;20.50;51.90;;;;;;10128190;28;93507;-68
2023/06/04 02:41:50;;;;;;;;;;;20.50;52.00;;;;;;10129461;28;94465;-67
2023/06/04 02:46:51;;;;;;;;;;;20.50;51.90;;;;;;10127861;28;94112;-67
2023/06/04 02:51:53;;;;;;;;;;;20.50;52.00;;;;;;10128369;28;94551;-67
2023/06/04 02:56:55;;;;;;;;;;;20.50;52.00;;;;;;10129324;28;92799;-67
2023/06/04 03:01:57;;;;;;;;;;;20.50;52.10;;;;;;10128951;28;94423;-67
2023/06/04 03:07:00;;;;;;;;;;;20.50;52.10;;;;;;10111891;28;94238;-68
2023/06/04 03:12:02;;;;;;;;;;;20.50;52.10;;;;;;10124796;28;95905;-67
2023/06/04 03:17:07;;;;;;;;;;;20.50;52.20;;;;;;10111053;28;94519;-67
2023/06/04 03:22:09;;;;;;;;;;;20.50;52.10;;;;;;10109921;28;94377;-68
2023/06/04 03:27:11;;;;;;;;;;;20.50;52.10;;;;;;10127244;28;93476;-67
2023/06/04 03:32:13;;;;;;;;;;;20.50;52.10;;;;;;10126792;28;93547;-67
2023/06/04 03:37:14;;;;;;;;;;;20.50;52.20;;;;;;10127844;28;94540;-67
2023/06/04 03:42:16;;;;;;;;;;;20.50;52.10;;;;;;10110098;28;93395;-67
2023/06/04 04:19:55;;;;;;;;;;;20.40;52.20;;;;;;10115671;28;93146;-67
2023/06/04 04:24:57;;;;;;;;;;;20.40;52.30;;;;;;10125382;28;93534;-67
2023/06/04 04:30:00;;;;;;;;;;;20.40;52.30;;;;;;10125995;28;94658;-67
2023/06/04 04:35:02;;;;;;;;;;;20.40;52.30;;;;;;10108835;28;94488;-67
2023/06/04 04:40:07;;;;;;;;;;;20.40;52.40;;;;;;10124938;28;93585;-67
2023/06/04 04:45:09;;;;;;;;;;;20.40;52.40;;;;;;10109317;28;93810;-67
2023/06/04 04:50:10;;;;;;;;;;;20.40;52.50;;;;;;10535341;23;93719;-67
2023/06/04 04:55:12;;;;;;;;;;;20.30;52.50;;;;;;10136506;28;94529;-68
2023/06/04 05:00:15;;;;;;;;;;;20.30;52.70;;;;;;10170328;28;96137;-68
2023/06/04 05:05:17;;;;;;;;;;;20.30;52.80;;;;;;10169799;28;93552;-67
2023/06/04 05:10:18;;;;;;;;;;;20.30;52.90;;;;;;10171775;28;93935;-67
2023/06/04 05:15:21;;;;;;;;;;;20.30;53.00;;;;;;10170352;28;93558;-67
2023/06/04 05:20:22;;;;;;;;;;;20.30;53.20;;;;;;10153816;28;93932;-67
2023/06/04 05:25:26;;;;;;;;;;;20.30;53.20;;;;;;10170203;28;94020;-67
2023/06/04 05:30:28;;;;;;;;;;;20.30;53.20;;;;;;10169847;28;93709;-67
2023/06/04 05:35:32;;;;;;;;;;;20.30;53.20;;;;;;10170142;28;92840;-67
2023/06/04 05:40:34;;;;;;;;;;;20.40;53.30;;;;;;10169865;28;94607;-67
2023/06/04 05:45:35;;;;;;;;;;;20.30;53.30;;;;;;10168503;28;92814;-67
2023/06/04 05:50:37;;;;;;;;;;;20.40;53.30;;;;;;10166187;28;97153;-67
2023/06/04 05:55:39;;;;;;;;;;;20.40;53.30;;;;;;10168415;28;93552;-67
2023/06/04 06:00:42;;;;;;;;;;;20.50;53.40;;;;;;10168466;28;94680;-67
2023/06/04 06:05:44;;;;;;;;;;;20.50;53.50;;;;;;10168247;28;94741;-67
2023/06/04 06:10:46;;;;;;;;;;;20.60;53.60;;;;;;10167392;28;94673;-67
2023/06/04 06:15:48;;;;;;;;;;;20.50;53.60;;;;;;10168536;28;93538;-67
2023/06/04 06:20:50;;;;;;;;;;;20.50;53.40;;;;;;10168786;28;94512;-68
2023/06/04 06:25:51;;;;;;;;;;;20.60;53.50;;;;;;10168002;28;92781;-67
2023/06/04 06:30:53;;;;;;;;;;;20.60;53.60;;;;;;10168282;28;94610;-68
2023/06/04 06:35:55;;;;;;;;;;;20.60;53.60;;;;;;10168757;28;94788;-68
2023/06/04 06:40:57;;;;;;;;;;;20.60;53.70;;;;;;10165911;28;96894;-67
2023/06/04 06:45:58;;;;;;;;;;;20.60;53.80;;;;;;10168069;28;95451;-67
2023/06/04 06:51:00;;;;;;;;;;;20.70;54.00;;;;;;10168113;28;94693;-69
2023/06/04 06:56:02;;;;;;;;;;;20.70;54.10;;;;;;10167246;28;93647;-68
2023/06/04 07:01:03;;;;;;;;;;;20.70;54.00;;;;;;10149708;28;93813;-66
2023/06/04 07:06:06;;;;;;;;;;;20.80;54.60;;;;;;10167169;28;94438;-67
2023/06/04 07:11:11;;;;;;;;;;;20.90;54.80;;;;;;10150060;28;94782;-67
2023/06/04 07:16:13;;;;;;;;;;;21.00;54.50;;;;;;10167343;28;93726;-67
2023/06/04 07:21:15;;;;;;;;;;;21.10;55.00;;;;;;10150724;28;92829;-68
2023/06/04 07:26:18;;;;;;;;;;;21.10;54.90;;;;;;10167124;28;93994;-68
2023/06/04 07:31:19;;;;;;;;;;;21.20;55.40;;;;;;10165325;28;96896;-69
2023/06/04 07:36:22;;;;;;;;;;;21.20;55.40;;;;;;10164732;28;93438;-68
2023/06/04 07:41:25;;;;;;;;;;;21.20;55.30;;;;;;10164419;28;92875;-67
2023/06/04 07:46:27;;;;;;;;;;;21.20;55.20;;;;;;10165607;28;94405;-68
2023/06/04 07:51:29;;;;;;;;;;;21.10;55.10;;;;;;10166037;28;94344;-67
2023/06/04 07:56:31;;;;;;;;;;;21.10;55.10;;;;;;10149302;28;94668;-68
2023/06/04 08:01:33;;;;;;;;;;;21.10;55.00;;;;;;10165102;28;94614;-68
2023/06/04 08:06:35;;;;;;;;;;;21.10;55.20;;;;;;10165636;28;93679;-68
2023/06/04 08:11:37;;;;;;;;;;;21.10;55.10;;;;;;10166611;28;93753;-68
2023/06/04 08:16:39;;;;;;;;;;;21.10;55.00;;;;;;10165521;28;94520;-68
2023/06/04 08:21:41;;;;;;;;;;;21.10;55.10;;;;;;10162496;28;95206;-67
2023/06/04 08:26:43;;;;;;;;;;;21.10;54.90;;;;;;10164853;28;93705;-67
2023/06/04 08:31:45;;;;;;;;;;;21.10;54.90;;;;;;10172165;28;93557;-68
2023/06/04 08:36:47;;;;;;;;;;;21.10;54.90;;;;;;10171448;28;93863;-68
2023/06/04 08:41:51;;;;;;;;;;;21.10;54.80;;;;;;10171079;28;93512;-67
2023/06/04 08:46:53;;;;;;;;;;;21.10;54.70;;;;;;10171875;28;94087;-67
2023/06/04 08:51:55;;;;;;;;;;;21.20;54.50;;;;;;10171143;28;92986;-68
2023/06/04 08:57:00;;;;;;;;;;;21.20;54.50;;;;;;10172526;28;93086;-67
2023/06/04 09:02:04;;;;;;;;;;;21.20;54.40;;;;;;10153473;28;113939;-67
2023/06/04 09:07:06;;;;;;;;;;;21.10;54.40;;;;;;10171908;28;92884;-67
2023/06/04 09:12:15;;;;;;;;;;;21.10;54.40;;;;;;10137504;28;97147;-67
2023/06/04 09:17:24;;;;;;;;;;;21.00;54.20;;;;;;10171019;28;93659;-68
2023/06/04 09:22:35;;;;;;;;;;;21.00;54.40;;;;;;10170997;28;93960;-67
2023/06/04 09:27:37;;;;;;;;;;;21.00;54.30;;;;;;10171076;28;93723;-68
2023/06/04 09:32:39;;;;;;;;;;;21.00;54.50;;;;;;10154334;28;93577;-67
2023/06/04 09:37:41;;;;;;;;;;;20.90;54.30;;;;;;10154200;28;92911;-67
2023/06/04 09:42:49;;;;;;;;;;;20.90;54.40;;;;;;10170086;28;93590;-67
2023/06/04 09:47:51;;;;;;;;;;;20.90;54.40;;;;;;10152573;28;92862;-67
2023/06/04 09:52:53;;;;;;;;;;;21.00;54.60;;;;;;10152389;28;92937;-68
2023/06/04 09:57:55;;;;;;;;;;;20.90;54.40;;;;;;10169814;28;93758;-68
2023/06/04 10:02:58;;;;;;;;;;;21.00;54.30;;;;;;10166658;28;95939;-67
2023/06/04 10:08:02;;;;;;;;;;;21.10;54.20;;;;;;10169385;28;93436;-68
2023/06/04 10:13:15;;;;;;;;;;;21.10;54.00;;;;;;10169269;28;93603;-67
2023/06/04 10:18:17;;;;;;;;;;;21.20;54.00;;;;;;10152327;28;93668;-68
2023/06/04 10:23:21;;;;;;;;;;;21.20;53.80;;;;;;10168439;28;93626;-68
2023/06/04 10:28:23;;;;;;;;;;;21.30;53.80;;;;;;10168617;28;92906;-68
2023/06/04 10:33:26;;;;;;;;;;;21.40;53.80;;;;;;10167578;28;94847;-70
2023/06/04 10:38:30;;;;;;;;;;;21.40;53.90;;;;;;10168940;28;93769;-70
2023/06/04 10:43:32;;;;;;;;;;;21.40;53.90;;;;;;10151600;28;93505;-70
2023/06/04 10:48:44;;;;;;;;;;;21.50;54.10;;;;;;10152050;28;94148;-70
2023/06/04 10:53:46;;;;;;;;;;;21.50;54.10;;;;;;10148467;28;95908;-70
2023/06/04 10:58:48;;;;;;;;;;;21.50;54.10;;;;;;10169704;28;94683;-70
2023/06/04 11:03:50;;;;;;;;;;;21.60;54.30;;;;;;10167923;28;93458;-70
2023/06/04 11:09:00;;;;;;;;;;;21.60;54.30;;;;;;10151670;28;93542;-70
2023/06/04 11:14:09;;;;;;;;;;;21.60;54.30;;;;;;10169214;28;93568;-70
2023/06/04 11:19:11;;;;;;;;;;;21.60;54.30;;;;;;10168912;28;93169;-70
2023/06/04 11:24:12;;;;;;;;;;;21.50;54.40;;;;;;10169140;28;93543;-71
2023/06/04 11:29:16;;;;;;;;;;;21.50;54.40;;;;;;10169934;28;95337;-70
2023/06/04 11:34:24;;;;;;;;;;;21.50;54.50;;;;;;10152265;28;94417;-70
2023/06/04 11:39:33;;;;;;;;;;;21.50;54.40;;;;;;10169689;28;93536;-69
2023/06/04 11:44:35;;;;;;;;;;;21.50;54.30;;;;;;10166406;28;96024;-69
2023/06/04 11:49:37;;;;;;;;;;;21.50;54.50;;;;;;10169533;28;94423;-71
2023/06/04 11:54:40;;;;;;;;;;;21.50;54.40;;;;;;10169920;28;93488;-70
2023/06/04 11:59:41;;;;;;;;;;;21.40;54.40;;;;;;10169463;28;93479;-70
2023/06/04 12:04:43;;;;;;;;;;;21.40;54.40;;;;;;10150304;28;92594;-71
2023/06/04 12:09:45;;;;;;;;;;;21.40;54.30;;;;;;10165434;28;93003;-72
2023/06/04 12:14:47;;;;;;;;;;;21.40;54.30;;;;;;10165622;28;93531;-71
2023/06/04 12:19:50;;;;;;;;;;;21.40;55.40;;;;;;10166656;28;93867;-72
2023/06/04 12:24:56;;;;;;;;;;;21.40;54.30;;;;;;10165971;28;93523;-71
2023/06/04 12:30:01;;;;;;;;;;;21.40;54.40;;;;;;10165414;28;93390;-67
2023/06/04 12:35:03;;;;;;;;;;;21.40;54.40;;;;;;10161118;28;96095;-69
2023/06/04 12:40:06;;;;;;;;;;;21.40;55.50;;;;;;10163545;28;94527;-67
2023/06/04 12:45:08;;;;;;;;;;;21.50;56.10;;;;;;10147081;28;94408;-68
2023/06/04 12:50:10;;;;;;;;;;;21.50;55.40;;;;;;10163829;28;94521;-68
2023/06/04 12:55:12;;;;;;;;;;;21.50;53.90;;;;;;10163003;28;93255;-68
2023/06/04 13:00:16;;;;;;;;;;;21.50;53.10;;;;;;10162438;28;92570;-69
2023/06/04 13:05:18;;;;;;;;;;;21.50;51.20;;;;;;10163884;28;94269;-69
2023/06/04 13:10:20;;;;;;;;;;;21.50;50.70;;;;;;10146793;28;93781;-69
2023/06/04 13:15:22;;;;;;;;;;;21.40;50.00;;;;;;10166579;28;93665;-68
2023/06/04 13:20:23;;;;;;;;;;;21.40;49.50;;;;;;10171333;28;93401;-69
2023/06/04 13:25:25;;;;;;;;;;;21.40;49.20;;;;;;10168636;28;96982;-69
2023/06/04 13:30:27;;;;;;;;;;;21.40;48.60;;;;;;10169210;28;94312;-69
2023/06/04 13:35:29;;;;;;;;;;;21.40;48.60;;;;;;10170436;28;93835;-70
2023/06/04 13:40:32;;;;;;;;;;;21.40;48.40;;;;;;10151470;28;93749;-69
2023/06/04 13:45:33;;;;;;;;;;;21.40;48.20;;;;;;10168864;28;94524;-68
2023/06/04 13:50:35;;;;;;;;;;;21.40;48.60;;;;;;10151108;28;94334;-69
2023/06/04 13:55:37;;;;;;;;;;;21.40;49.00;;;;;;10169517;28;95359;-69
2023/06/04 14:00:39;;;;;;;;;;;21.40;49.10;;;;;;10170498;28;94112;-69
2023/06/04 14:05:41;;;;;;;;;;;21.40;49.30;;;;;;10168312;28;94277;-69
2023/06/04 14:10:43;;;;;;;;;;;21.40;49.50;;;;;;10168987;28;93759;-69
2023/06/04 14:15:45;;;;;;;;;;;21.40;49.70;;;;;;10166351;28;96857;-68
2023/06/04 14:20:47;;;;;;;;;;;21.30;49.90;;;;;;10168661;28;94507;-69
2023/06/04 14:25:48;;;;;;;;;;;21.30;49.90;;;;;;10167882;28;93608;-69
2023/06/04 14:30:50;;;;;;;;;;;21.30;50.10;;;;;;10150782;28;94582;-68
2023/06/04 14:35:52;;;;;;;;;;;21.30;50.30;;;;;;10169355;28;94873;-68
2023/06/04 14:40:55;;;;;;;;;;;21.30;50.50;;;;;;10167382;28;94372;-68
2023/06/04 14:45:57;;;;;;;;;;;21.30;50.60;;;;;;10168353;28;92882;-68
2023/06/04 14:50:59;;;;;;;;;;;21.30;50.80;;;;;;10168422;28;92569;-68
2023/06/04 14:56:01;;;;;;;;;;;21.30;50.90;;;;;;10151245;28;94298;-68
2023/06/04 15:01:03;;;;;;;;;;;21.30;51.00;;;;;;10168127;28;94405;-69
2023/06/04 15:06:05;;;;;;;;;;;21.30;51.10;;;;;;10159223;28;96866;-68
2023/06/04 15:11:20;;;;;;;;;;;21.30;51.20;;;;;;10159851;28;92639;-68
2023/06/04 15:16:23;;;;;;;;;;;21.30;51.50;;;;;;10164356;28;93561;-69
2023/06/04 15:21:25;;;;;;;;;;;21.30;51.80;;;;;;10165619;28;94561;-68
2023/06/04 15:26:26;;;;;;;;;;;21.30;52.70;;;;;;10165316;28;92947;-66
2023/06/04 15:31:28;;;;;;;;;;;21.40;54.30;;;;;;10166178;28;93632;-68
2023/06/04 15:36:30;;;;;;;;;;;21.50;56.00;;;;;;10165991;28;93474;-72
2023/06/04 15:41:32;;;;;;;;;;;21.60;55.70;;;;;;10167194;28;92847;-66
2023/06/04 15:46:34;;;;;;;;;;;21.60;56.00;;;;;;10149555;28;94539;-69
2023/06/04 15:51:36;;;;;;;;;;;21.70;58.40;;;;;;10148891;28;94523;-69
2023/06/04 15:56:38;;;;;;;;;;;21.70;58.00;;;;;;10146427;28;97012;-70
2023/06/04 16:01:44;;;;;;;;;;;21.80;57.30;;;;;;10166497;28;94501;-71
2023/06/04 16:06:46;;;;;;;;;;;21.80;60.00;;;;;;10166076;28;94436;-70
2023/06/04 16:11:48;;;;;;;;;;;21.90;58.60;;;;;;10166668;28;94067;-70
2023/06/04 16:16:50;;;;;;;;;;;22.00;58.30;;;;;;10164800;28;94577;-70
2023/06/04 16:21:52;;;;;;;;;;;22.00;58.20;;;;;;10148360;28;93336;-68
2023/06/04 16:26:54;;;;;;;;;;;22.00;58.20;;;;;;10164148;28;94697;-68
2023/06/04 16:31:56;;;;;;;;;;;22.00;58.20;;;;;;10149300;28;93762;-68
2023/06/04 16:36:57;;;;;;;;;;;22.00;58.40;;;;;;10164358;28;94649;-68
2023/06/04 16:42:02;;;;;;;;;;;22.00;58.80;;;;;;10164357;28;93197;-69
2023/06/04 16:47:04;;;;;;;;;;;22.00;58.70;;;;;;10162243;28;97005;-69
2023/06/04 16:52:07;;;;;;;;;;;22.00;58.50;;;;;;10170423;28;92618;-68
2023/06/04 16:57:08;;;;;;;;;;;21.90;58.50;;;;;;10171151;28;93832;-70
2023/06/04 17:02:10;;;;;;;;;;;21.90;58.40;;;;;;10153455;28;93579;-70
2023/06/04 17:07:12;;;;;;;;;;;21.90;58.40;;;;;;10171527;28;94520;-69
2023/06/04 17:12:14;;;;;;;;;;;21.90;58.70;;;;;;10153565;28;94473;-68
2023/06/04 17:17:16;;;;;;;;;;;21.90;58.70;;;;;;10171416;28;93885;-69
2023/06/04 17:22:18;;;;;;;;;;;21.90;58.90;;;;;;10153716;28;93029;-69
2023/06/04 17:27:19;;;;;;;;;;;22.00;59.00;;;;;;10170162;28;94807;-70
2023/06/04 17:32:21;;;;;;;;;;;22.00;59.00;;;;;;10170474;28;93407;-69
2023/06/04 17:37:24;;;;;;;;;;;22.00;59.10;;;;;;10150218;28;97061;-69
2023/06/04 17:42:26;;;;;;;;;;;22.10;59.20;;;;;;10170988;28;94614;-70
2023/06/04 17:47:28;;;;;;;;;;;22.00;59.20;;;;;;10169088;28;93095;-69
2023/06/04 17:52:30;;;;;;;;;;;22.10;59.30;;;;;;10169673;28;93895;-69
2023/06/04 17:57:31;;;;;;;;;;;22.10;59.10;;;;;;10170641;28;93689;-70
2023/06/04 18:02:33;;;;;;;;;;;22.10;59.00;;;;;;10169668;28;94695;-71
2023/06/04 18:07:35;;;;;;;;;;;22.20;58.90;;;;;;10151148;28;94302;-70
2023/06/04 18:12:37;;;;;;;;;;;22.20;58.80;;;;;;10153057;28;92972;-70
2023/06/04 18:17:40;;;;;;;;;;;22.30;58.70;;;;;;10169833;28;94463;-70
2023/06/04 18:22:41;;;;;;;;;;;22.40;58.60;;;;;;10170074;28;94218;-70
2023/06/04 18:27:43;;;;;;;;;;;22.40;58.50;;;;;;10167131;28;100181;-69
2023/06/04 18:32:46;;;;;;;;;;;22.40;58.40;;;;;;10167686;28;95222;-70
2023/06/04 18:37:49;;;;;;;;;;;22.40;58.50;;;;;;10168459;28;94696;-69
2023/06/04 18:42:51;;;;;;;;;;;22.30;58.40;;;;;;10149930;28;93656;-69
2023/06/04 18:47:53;;;;;;;;;;;22.30;58.50;;;;;;10168536;28;94503;-69
2023/06/04 18:52:55;;;;;;;;;;;22.20;58.50;;;;;;10168167;28;92807;-70
2023/06/04 18:57:57;;;;;;;;;;;22.20;58.40;;;;;;10167079;28;94613;-68
2023/06/04 19:02:58;;;;;;;;;;;22.10;59.50;;;;;;10169073;28;93700;-68
2023/06/04 19:08:00;;;;;;;;;;;22.10;58.60;;;;;;10149483;28;94553;-68
2023/06/04 19:13:02;;;;;;;;;;;22.10;58.70;;;;;;10167206;28;93582;-68
2023/06/04 19:18:05;;;;;;;;;;;22.00;58.60;;;;;;10165008;28;96018;-68
2023/06/04 19:23:07;;;;;;;;;;;22.00;58.50;;;;;;10149072;28;93524;-69
2023/06/04 19:28:11;;;;;;;;;;;22.00;58.50;;;;;;10167568;28;92919;-69
2023/06/04 19:33:13;;;;;;;;;;;21.90;58.50;;;;;;10149552;28;93645;-69
2023/06/04 19:38:15;;;;;;;;;;;21.90;58.50;;;;;;10150221;28;94785;-69
2023/06/04 19:43:17;;;;;;;;;;;21.90;58.50;;;;;;10167108;28;94871;-69
2023/06/04 19:48:18;;;;;;;;;;;21.80;58.40;;;;;;10166067;28;94454;-68
2023/06/04 19:53:20;;;;;;;;;;;21.80;58.50;;;;;;10167033;28;92861;-70
2023/06/04 19:58:22;;;;;;;;;;;21.80;58.20;;;;;;10166282;28;93704;-69
2023/06/04 20:03:24;;;;;;;;;;;21.80;58.30;;;;;;10166075;28;93526;-69
2023/06/04 20:08:26;;;;;;;;;;;21.80;58.30;;;;;;10164232;28;96233;-69
2023/06/04 20:13:28;;;;;;;;;;;21.80;58.40;;;;;;10166747;28;94606;-69
2023/06/04 20:18:32;;;;;;;;;;;21.70;58.40;;;;;;10165471;28;94166;-69
2023/06/04 20:23:35;;;;;;;;;;;21.70;58.40;;;;;;10165492;28;94507;-70
2023/06/04 20:28:37;;;;;;;;;;;21.70;58.30;;;;;;10173814;28;93303;-70
2023/06/04 20:33:38;;;;;;;;;;;21.70;58.20;;;;;;10172721;28;93681;-70
2023/06/04 20:38:40;;;;;;;;;;;21.70;58.20;;;;;;10173138;28;93919;-70
2023/06/04 20:43:51;;;;;;;;;;;21.70;58.30;;;;;;10172891;28;93911;-70
2023/06/04 20:48:53;;;;;;;;;;;21.70;58.20;;;;;;10172022;28;94727;-69
2023/06/04 20:53:55;;;;;;;;;;;21.70;58.20;;;;;;10170852;28;93587;-71
2023/06/04 20:58:56;;;;;;;;;;;21.70;58.10;;;;;;10169639;28;95926;-70
2023/06/04 21:03:59;;;;;;;;;;;21.70;58.00;;;;;;10171500;28;94437;-70
2023/06/04 21:09:02;;;;;;;;;;;21.70;58.10;;;;;;10154087;28;93764;-71
2023/06/04 21:14:04;;;;;;;;;;;21.70;57.90;;;;;;10171369;28;94568;-68
2023/06/04 21:19:05;;;;;;;;;;;21.60;57.90;;;;;;10153784;28;93547;-68
2023/06/04 21:24:07;;;;;;;;;;;21.60;57.80;;;;;;10169980;28;93684;-69
2023/06/04 21:29:09;;;;;;;;;;;21.60;57.70;;;;;;10171276;28;94654;-69
2023/06/04 21:34:11;;;;;;;;;;;21.60;57.50;;;;;;10170411;28;92802;-68
2023/06/04 21:39:12;;;;;;;;;;;21.50;58.40;;;;;;10169865;28;93393;-68
2023/06/04 21:44:14;;;;;;;;;;;21.50;57.40;;;;;;10170344;28;94610;-67
2023/06/04 21:49:17;;;;;;;;;;;21.50;57.40;;;;;;10165393;28;95862;-68
2023/06/04 21:54:18;;;;;;;;;;;21.50;57.40;;;;;;10153307;28;94578;-68
2023/06/04 21:59:20;;;;;;;;;;;21.50;57.40;;;;;;10168679;28;93705;-69
2023/06/04 22:04:23;;;;;;;;;;;21.40;57.20;;;;;;10169405;28;94677;-68
2023/06/04 22:09:24;;;;;;;;;;;21.40;57.20;;;;;;10169362;28;94212;-68
2023/06/04 22:14:26;;;;;;;;;;;21.40;57.20;;;;;;10167889;28;93744;-68
2023/06/04 22:19:28;;;;;;;;;;;21.40;57.10;;;;;;10169048;28;94500;-68
2023/06/04 22:24:30;;;;;;;;;;;21.40;57.00;;;;;;10170046;28;92697;-68
2023/06/04 22:29:31;;;;;;;;;;;21.40;57.00;;;;;;10150939;28;94477;-69
2023/06/04 22:34:33;;;;;;;;;;;21.30;57.00;;;;;;10168274;28;93547;-68
2023/06/04 22:39:35;;;;;;;;;;;21.30;57.00;;;;;;10165199;28;96012;-68
2023/06/04 22:44:37;;;;;;;;;;;21.30;56.90;;;;;;10169364;28;93606;-67
2023/06/04 22:49:39;;;;;;;;;;;21.30;56.90;;;;;;10167399;28;93649;-69
2023/06/04 22:54:41;;;;;;;;;;;21.30;56.90;;;;;;10168020;28;94091;-69
2023/06/04 22:59:42;;;;;;;;;;;21.30;56.90;;;;;;10167308;28;94642;-69
2023/06/04 23:04:45;;;;;;;;;;;21.30;56.80;;;;;;10168265;28;95767;-70
2023/06/04 23:09:47;;;;;;;;;;;21.30;56.80;;;;;;10167736;28;93712;-69
2023/06/04 23:14:48;;;;;;;;;;;21.30;56.60;;;;;;10168050;28;93799;-68
2023/06/04 23:19:50;;;;;;;;;;;21.30;56.60;;;;;;10167405;28;93655;-68
2023/06/04 23:24:53;;;;;;;;;;;21.30;56.50;;;;;;10167172;28;94438;-69
2023/06/04 23:29:55;;;;;;;;;;;21.30;56.50;;;;;;10164856;28;96055;-68
2023/06/04 23:34:57;;;;;;;;;;;21.20;56.30;;;;;;10148884;28;92727;-69
2023/06/04 23:39:59;;;;;;;;;;;21.20;56.30;;;;;;10167333;28;93628;-69
2023/06/04 23:45:01;;;;;;;;;;;21.20;56.20;;;;;;10149634;28;94736;-69
2023/06/04 23:50:03;;;;;;;;;;;21.20;57.10;;;;;;10165675;28;93569;-68
2023/06/04 23:55:04;;;;;;;;;;;21.20;56.10;;;;;;10166500;28;93552;-68
